Portada
METAR-TAF:

METAR-TAF

Aeropuertos :

Humberside, Inglaterra

latitud: 53-35N, longitud: 000-21W, altitud: 31 m

Observación

El informe se hizo hace 30 minutos, a las 11:50 UTC
Viento 12 kt del suroeste
Temperatura 21°C
Humedad 49%
Presión 1021 hPa
Visibilidad 10 km o más
Nubes dispersas a una altura de 4400 ft

METAR: EGNJ 191150Z 22012KT 9999 SCT044 21/10 Q1021

Hora: 13:20 (12:20 UTC)

Pronóstico

El informe se hizo hace 1 hora y 18 minutos, a las 11:02 UTC
Pronóstico válido del 19 a las 12 UTC al 19 a las 21 UTC
Viento 8 kt del suroeste
Visibilidad 10 km o más
Escasas nubes a una altura de 2500 ft

TAF: EGNJ 191102Z 1912/1921 23008KT 9999 FEW025

Observaciones y pronósticos meteorológicos de más de 4000 aeropuertos (mensajes METAR y TAF).

Los puntos amarillos y rojos representan las estaciones disponibles.

Ponga el ratón en el punto deseado para ver el nombre de la estación.

Haga clic para ver las observaciones y los pronósticos meteorológicos.

Para cambiar el mapa : haga clic en los botones verdes con una cruz de color negro para hacer un zoom, en el botón verde con un guión para alejar o en las flechas verdes para mapas adyacentes.


METAR-TAF: